createdAt,value
2022-11-29T00:00:10.553Z,0.00
2022-11-29T00:01:10.521Z,0.00
2022-11-29T00:02:10.619Z,0.00
2022-11-29T00:03:10.900Z,0.00
2022-11-29T00:04:10.462Z,0.00
2022-11-29T00:05:10.462Z,0.00
2022-11-29T00:06:10.459Z,0.00
2022-11-29T00:07:10.469Z,0.00
2022-11-29T00:08:10.421Z,0.00
2022-11-29T00:09:10.436Z,0.00
2022-11-29T00:10:10.407Z,0.00
2022-11-29T00:11:10.400Z,0.00
2022-11-29T00:12:10.458Z,0.00
2022-11-29T00:13:10.395Z,0.00
2022-11-29T00:14:10.398Z,0.00
2022-11-29T00:15:10.329Z,0.00
2022-11-29T00:16:10.458Z,0.00
2022-11-29T00:17:10.318Z,0.00
2022-11-29T00:18:10.324Z,0.00
2022-11-29T00:19:10.286Z,0.00
2022-11-29T00:20:10.298Z,0.00
2022-11-29T00:21:10.270Z,0.00
2022-11-29T00:22:10.293Z,0.00
2022-11-29T00:23:10.254Z,0.00
2022-11-29T00:24:10.255Z,0.00
2022-11-29T00:25:10.242Z,0.00
2022-11-29T00:26:10.242Z,0.00
2022-11-29T00:27:10.259Z,0.00
2022-11-29T00:28:10.197Z,0.00
2022-11-29T00:29:10.186Z,0.00
2022-11-29T00:30:10.166Z,0.00
2022-11-29T00:31:10.179Z,0.00
2022-11-29T00:32:10.180Z,0.00
2022-11-29T00:33:10.138Z,0.00
2022-11-29T00:34:10.118Z,0.00
2022-11-29T00:35:10.270Z,0.00
2022-11-29T00:36:10.125Z,0.00
2022-11-29T00:37:10.157Z,0.00
2022-11-29T00:38:10.075Z,0.00
2022-11-29T00:39:10.067Z,0.00
2022-11-29T00:40:10.059Z,0.00
2022-11-29T00:41:10.056Z,0.00
2022-11-29T00:42:10.078Z,0.00
2022-11-29T00:43:10.071Z,0.00
2022-11-29T00:44:12.815Z,0.00
2022-11-29T00:45:11.037Z,0.00
2022-11-29T00:46:10.028Z,0.00
2022-11-29T00:47:10.053Z,0.00
2022-11-29T00:48:09.977Z,0.00
2022-11-29T00:49:09.990Z,0.00
2022-11-29T00:50:09.957Z,0.00
2022-11-29T00:51:09.939Z,0.00
2022-11-29T00:52:10.005Z,0.00
2022-11-29T00:53:09.927Z,0.00
2022-11-29T00:54:09.911Z,0.00
2022-11-29T00:55:09.894Z,0.00
2022-11-29T00:56:09.900Z,0.00
2022-11-29T00:57:09.908Z,0.00
2022-11-29T00:58:09.866Z,0.00
2022-11-29T00:59:09.854Z,0.00
2022-11-29T01:00:09.852Z,0.00
2022-11-29T01:01:09.883Z,0.00
2022-11-29T01:02:09.890Z,0.00
2022-11-29T01:03:09.827Z,0.00
2022-11-29T01:04:09.804Z,0.00
2022-11-29T01:05:09.784Z,0.00
2022-11-29T01:06:09.821Z,0.00
2022-11-29T01:07:09.777Z,0.00
2022-11-29T01:08:09.761Z,0.00
2022-11-29T01:09:09.769Z,0.00
2022-11-29T01:10:09.736Z,0.00
2022-11-29T01:11:09.726Z,0.00
2022-11-29T01:12:09.733Z,0.00
2022-11-29T01:13:09.769Z,0.00
2022-11-29T01:14:09.695Z,0.00
2022-11-29T01:15:09.676Z,0.00
2022-11-29T01:16:09.666Z,0.00
2022-11-29T01:17:09.687Z,0.00
2022-11-29T01:18:09.692Z,0.00
2022-11-29T01:19:09.647Z,0.00
2022-11-29T01:20:09.634Z,0.00
2022-11-29T01:21:09.615Z,0.00
2022-11-29T01:22:09.627Z,0.00
2022-11-29T01:23:09.607Z,0.00
2022-11-29T01:24:09.598Z,0.00
2022-11-29T01:25:09.585Z,0.00
2022-11-29T01:26:09.585Z,0.00
2022-11-29T01:27:09.607Z,0.00
2022-11-29T01:28:09.585Z,0.00
2022-11-29T01:29:09.542Z,0.00
2022-11-29T01:30:09.520Z,0.00
2022-11-29T01:31:09.566Z,0.00
2022-11-29T01:32:09.503Z,0.00
2022-11-29T01:33:09.506Z,0.00
2022-11-29T01:34:09.484Z,0.00
2022-11-29T01:35:09.489Z,0.00
2022-11-29T01:36:09.478Z,0.00
2022-11-29T01:37:09.444Z,0.00
2022-11-29T01:38:09.460Z,0.00
2022-11-29T01:39:09.436Z,0.00
2022-11-29T01:40:09.420Z,0.00
2022-11-29T01:41:09.407Z,0.00
2022-11-29T01:42:09.391Z,0.00
2022-11-29T01:43:09.394Z,0.00
2022-11-29T01:44:09.468Z,0.00
2022-11-29T01:45:09.354Z,0.00
2022-11-29T01:46:09.412Z,0.00
2022-11-29T01:47:09.341Z,0.00
2022-11-29T01:48:09.346Z,0.00
2022-11-29T01:49:09.334Z,0.00
2022-11-29T01:50:09.330Z,0.00
2022-11-29T01:51:09.292Z,0.00
2022-11-29T01:52:09.353Z,0.00
2022-11-29T01:53:09.376Z,0.00
2022-11-29T01:54:09.293Z,0.00
2022-11-29T01:55:09.438Z,0.00
2022-11-29T01:56:09.295Z,0.00
2022-11-29T01:57:09.244Z,0.00
2022-11-29T01:58:09.232Z,0.00
2022-11-29T01:59:09.246Z,0.00
2022-11-29T02:00:09.213Z,0.00
2022-11-29T02:01:09.284Z,0.00
2022-11-29T02:02:09.245Z,0.00
2022-11-29T02:03:09.210Z,0.00
2022-11-29T02:04:09.175Z,0.00
2022-11-29T02:05:09.146Z,0.00
2022-11-29T02:06:09.145Z,0.00
2022-11-29T02:07:09.251Z,0.00
2022-11-29T02:08:09.173Z,0.00
2022-11-29T02:09:09.094Z,0.00
2022-11-29T02:10:09.124Z,0.00
2022-11-29T02:11:09.137Z,0.00
2022-11-29T02:12:09.073Z,0.00
2022-11-29T02:13:09.067Z,0.00
2022-11-29T02:14:09.058Z,0.00
2022-11-29T02:15:09.074Z,0.00
2022-11-29T02:16:09.105Z,0.00
2022-11-29T02:17:09.013Z,0.00
2022-11-29T02:18:09.022Z,0.00
2022-11-29T02:19:08.986Z,0.00
2022-11-29T02:20:09.016Z,0.00
2022-11-29T02:21:08.984Z,0.00
2022-11-29T02:22:08.964Z,0.00
2022-11-29T02:23:08.977Z,0.00
2022-11-29T02:24:09.024Z,0.00
2022-11-29T02:25:08.923Z,0.00
2022-11-29T02:26:08.919Z,0.00
2022-11-29T02:27:08.914Z,0.00
2022-11-29T02:28:08.927Z,0.00
2022-11-29T02:29:08.905Z,0.00
2022-11-29T02:30:08.878Z,0.00
2022-11-29T02:31:08.935Z,0.00
2022-11-29T02:32:08.854Z,0.00
2022-11-29T02:33:08.861Z,0.00
2022-11-29T02:34:08.832Z,0.00
2022-11-29T02:35:08.813Z,0.00
2022-11-29T02:36:08.826Z,0.00
2022-11-29T02:37:11.641Z,0.00
2022-11-29T02:38:08.819Z,0.00
2022-11-29T02:39:08.812Z,0.00
2022-11-29T02:40:08.765Z,0.00
2022-11-29T02:41:08.754Z,0.00
2022-11-29T02:42:08.761Z,0.00
2022-11-29T02:43:08.758Z,0.00
2022-11-29T02:44:08.724Z,0.00
2022-11-29T02:45:08.721Z,0.00
2022-11-29T02:46:08.748Z,0.00
2022-11-29T02:47:08.694Z,0.00
2022-11-29T02:48:08.702Z,0.00
2022-11-29T02:49:08.691Z,0.00
2022-11-29T02:50:08.662Z,0.00
2022-11-29T02:51:08.660Z,0.00
2022-11-29T02:52:08.641Z,0.00
2022-11-29T02:53:08.630Z,0.00
2022-11-29T02:54:08.609Z,0.00
2022-11-29T02:55:08.600Z,0.00
2022-11-29T02:56:08.617Z,0.00
2022-11-29T02:57:08.579Z,0.00
2022-11-29T02:58:08.601Z,0.00
2022-11-29T02:59:08.580Z,0.00
2022-11-29T03:00:08.558Z,0.00
2022-11-29T03:01:08.586Z,0.00
2022-11-29T03:02:08.569Z,0.00
2022-11-29T03:03:08.571Z,0.00
2022-11-29T03:04:08.562Z,0.00
2022-11-29T03:05:08.493Z,0.00
2022-11-29T03:06:08.534Z,0.00
2022-11-29T03:07:08.469Z,0.00
2022-11-29T03:08:08.503Z,0.00
2022-11-29T03:09:08.448Z,0.00
2022-11-29T03:10:08.508Z,0.00
2022-11-29T03:11:08.422Z,0.00
2022-11-29T03:12:08.418Z,0.00
2022-11-29T03:13:08.423Z,0.00
2022-11-29T03:14:08.458Z,0.00
2022-11-29T03:15:08.378Z,0.00
2022-11-29T03:16:08.403Z,0.00
2022-11-29T03:17:08.362Z,0.00
2022-11-29T03:18:08.619Z,0.00
2022-11-29T03:19:08.348Z,0.00
2022-11-29T03:20:08.338Z,0.00
2022-11-29T03:21:08.332Z,0.00
2022-11-29T03:22:08.309Z,0.00
2022-11-29T03:23:08.299Z,0.00
2022-11-29T03:24:08.303Z,0.00
2022-11-29T03:25:08.278Z,0.00
2022-11-29T03:26:08.276Z,0.00
2022-11-29T03:27:08.309Z,0.00
2022-11-29T03:28:08.248Z,0.00
2022-11-29T03:29:08.249Z,0.00
2022-11-29T03:30:08.230Z,0.00
2022-11-29T03:31:08.271Z,0.00
2022-11-29T03:32:08.216Z,0.00
2022-11-29T03:33:08.204Z,0.00
2022-11-29T03:34:08.190Z,0.00
2022-11-29T03:35:08.192Z,0.00
2022-11-29T03:36:08.161Z,0.00
2022-11-29T03:37:08.155Z,0.00
2022-11-29T03:38:08.155Z,0.00
2022-11-29T03:39:08.148Z,0.00
2022-11-29T03:40:08.119Z,0.00
2022-11-29T03:41:08.116Z,0.00
2022-11-29T03:42:08.103Z,0.00
2022-11-29T03:43:08.133Z,0.00
2022-11-29T03:44:08.137Z,0.00
2022-11-29T03:45:08.092Z,0.00
2022-11-29T03:46:08.118Z,0.00
2022-11-29T03:47:08.036Z,0.00
2022-11-29T03:48:08.038Z,0.00
2022-11-29T03:49:08.046Z,0.00
2022-11-29T03:50:08.014Z,0.00
2022-11-29T03:51:07.999Z,0.00
2022-11-29T03:52:07.992Z,0.00
2022-11-29T03:53:07.975Z,0.00
2022-11-29T03:54:08.002Z,0.00
2022-11-29T03:55:07.966Z,0.00
2022-11-29T03:56:07.945Z,0.00
2022-11-29T03:57:07.961Z,0.00
2022-11-29T03:58:07.914Z,0.00
2022-11-29T03:59:07.916Z,0.00
2022-11-29T04:00:07.944Z,0.00
2022-11-29T04:01:07.957Z,0.00
2022-11-29T04:02:07.919Z,0.00
2022-11-29T04:03:07.873Z,0.00
2022-11-29T04:04:07.875Z,0.00
2022-11-29T04:05:07.845Z,0.00
2022-11-29T04:06:07.843Z,0.00
2022-11-29T04:07:07.835Z,0.00
2022-11-29T04:08:07.815Z,0.00
2022-11-29T04:09:07.813Z,0.00
2022-11-29T04:10:07.795Z,0.00
2022-11-29T04:11:07.784Z,0.00
2022-11-29T04:12:07.785Z,0.00
2022-11-29T04:13:07.773Z,0.00
2022-11-29T04:14:07.776Z,0.00
2022-11-29T04:15:10.522Z,0.00
2022-11-29T04:16:08.795Z,0.00
2022-11-29T04:17:07.761Z,0.00
2022-11-29T04:18:07.715Z,0.00
2022-11-29T04:19:07.703Z,0.00
2022-11-29T04:20:07.682Z,0.00
2022-11-29T04:21:07.673Z,0.00
2022-11-29T04:22:07.712Z,0.00
2022-11-29T04:23:07.683Z,0.00
2022-11-29T04:24:07.644Z,0.00
2022-11-29T04:25:07.655Z,0.00
2022-11-29T04:26:07.622Z,0.00
2022-11-29T04:27:07.601Z,0.00
2022-11-29T04:28:07.602Z,0.00
2022-11-29T04:29:07.593Z,0.00
2022-11-29T04:30:07.591Z,0.00
2022-11-29T04:31:07.602Z,0.00
2022-11-29T04:32:07.572Z,0.00
2022-11-29T04:33:07.562Z,0.00
2022-11-29T04:34:07.544Z,0.00
2022-11-29T04:35:07.542Z,0.00
2022-11-29T04:36:07.513Z,0.00
2022-11-29T04:37:07.510Z,0.00
2022-11-29T04:38:07.506Z,0.00
2022-11-29T04:39:07.482Z,0.00
2022-11-29T04:40:07.494Z,0.00
2022-11-29T04:41:07.460Z,0.00
2022-11-29T04:42:07.464Z,0.00
2022-11-29T04:43:07.441Z,0.00
2022-11-29T04:44:07.421Z,0.00
2022-11-29T04:45:07.428Z,0.00
2022-11-29T04:46:07.449Z,0.00
2022-11-29T04:47:07.410Z,0.00
2022-11-29T04:48:07.390Z,0.00
2022-11-29T04:49:07.382Z,0.00
2022-11-29T04:50:07.373Z,0.00
2022-11-29T04:51:07.354Z,0.00
2022-11-29T04:52:07.351Z,0.00
2022-11-29T04:53:07.338Z,0.00
2022-11-29T04:54:07.352Z,0.00
2022-11-29T04:55:07.318Z,0.00
2022-11-29T04:56:07.307Z,0.00
2022-11-29T04:57:07.288Z,0.00
2022-11-29T04:58:07.300Z,0.00
2022-11-29T04:59:07.282Z,0.00
2022-11-29T05:00:07.268Z,0.00
2022-11-29T05:01:07.256Z,0.00
2022-11-29T05:02:07.251Z,0.00
2022-11-29T05:03:07.305Z,0.00
2022-11-29T05:04:07.230Z,0.00
2022-11-29T05:05:07.271Z,0.00
2022-11-29T05:06:07.185Z,0.00
2022-11-29T05:07:07.203Z,0.00
2022-11-29T05:08:07.170Z,0.00
2022-11-29T05:09:07.178Z,0.00
2022-11-29T05:10:07.190Z,0.00
2022-11-29T05:11:07.137Z,0.00
2022-11-29T05:12:07.126Z,0.00
2022-11-29T05:13:07.118Z,0.00
2022-11-29T05:14:07.102Z,0.00
2022-11-29T05:15:07.111Z,0.00
2022-11-29T05:16:07.139Z,0.00
2022-11-29T05:17:07.088Z,0.00
2022-11-29T05:18:07.080Z,0.00
2022-11-29T05:19:07.057Z,0.00
2022-11-29T05:20:07.052Z,0.00
2022-11-29T05:21:07.027Z,0.00
2022-11-29T05:22:07.019Z,0.00
2022-11-29T05:23:07.010Z,0.00
2022-11-29T05:24:06.991Z,0.00
2022-11-29T05:25:07.047Z,0.00
2022-11-29T05:26:06.981Z,0.00
2022-11-29T05:27:06.967Z,0.00
2022-11-29T05:28:10.032Z,0.00
2022-11-29T05:29:06.938Z,0.00
2022-11-29T05:30:06.964Z,0.00
2022-11-29T05:31:07.204Z,0.00
2022-11-29T05:32:06.949Z,0.00
2022-11-29T05:33:06.887Z,0.00
2022-11-29T05:34:06.888Z,0.00
2022-11-29T05:35:06.877Z,0.00
2022-11-29T05:36:06.868Z,0.00
2022-11-29T05:37:06.885Z,0.00
2022-11-29T05:38:06.837Z,0.00
2022-11-29T05:39:06.837Z,0.00
2022-11-29T05:40:06.813Z,0.00
2022-11-29T05:41:06.834Z,0.00
2022-11-29T05:42:06.796Z,0.00
2022-11-29T05:43:06.793Z,0.00
2022-11-29T05:44:06.781Z,0.00
2022-11-29T05:45:06.766Z,0.00
2022-11-29T05:46:06.786Z,0.00
2022-11-29T05:47:06.752Z,0.00
2022-11-29T05:48:06.739Z,0.00
2022-11-29T05:49:06.715Z,0.00
2022-11-29T05:50:06.998Z,0.00
2022-11-29T05:51:06.707Z,0.00
2022-11-29T05:52:06.691Z,0.00
2022-11-29T05:53:06.688Z,0.00
2022-11-29T05:54:06.715Z,0.00
2022-11-29T05:55:06.665Z,0.00
2022-11-29T05:56:06.654Z,0.00
2022-11-29T05:57:06.636Z,0.00
2022-11-29T05:58:06.635Z,0.00
2022-11-29T05:59:06.625Z,0.00
2022-11-29T06:00:06.604Z,0.00
2022-11-29T06:01:06.605Z,0.00
2022-11-29T06:02:06.629Z,0.00
2022-11-29T06:03:06.646Z,0.00
2022-11-29T06:04:11.715Z,0.00
2022-11-29T06:05:07.547Z,0.00
2022-11-29T06:06:06.547Z,0.00
2022-11-29T06:07:06.537Z,0.00
2022-11-29T06:08:06.513Z,0.00
2022-11-29T06:09:06.516Z,0.00
2022-11-29T06:10:06.487Z,0.00
2022-11-29T06:11:06.511Z,0.00
2022-11-29T06:12:06.491Z,0.00
2022-11-29T06:13:06.482Z,0.00
2022-11-29T06:14:06.452Z,0.00
2022-11-29T06:15:06.433Z,0.00
2022-11-29T06:16:06.469Z,0.00
2022-11-29T06:17:06.561Z,0.00
2022-11-29T06:18:06.402Z,0.00
2022-11-29T06:19:06.399Z,0.00
2022-11-29T06:20:06.403Z,0.00
2022-11-29T06:21:06.425Z,0.00
2022-11-29T06:22:06.362Z,0.00
2022-11-29T06:23:06.342Z,0.00
2022-11-29T06:24:06.345Z,0.00
2022-11-29T06:25:06.328Z,0.00
2022-11-29T06:26:06.332Z,0.00
2022-11-29T06:27:06.312Z,0.00
2022-11-29T06:28:07.022Z,0.00
2022-11-29T06:29:06.310Z,0.00
2022-11-29T06:30:06.273Z,0.00
2022-11-29T06:31:06.354Z,0.00
2022-11-29T06:32:06.253Z,0.00
2022-11-29T06:33:06.304Z,0.00
2022-11-29T06:34:06.246Z,0.00
2022-11-29T06:35:06.225Z,0.00
2022-11-29T06:36:06.230Z,0.00
2022-11-29T06:37:06.203Z,0.00
2022-11-29T06:38:06.261Z,0.00
2022-11-29T06:39:06.193Z,0.00
2022-11-29T06:40:06.105Z,1.00
2022-11-29T06:41:06.141Z,1.00
2022-11-29T06:42:06.103Z,1.00
2022-11-29T06:43:06.100Z,1.00
2022-11-29T06:44:06.078Z,2.00
2022-11-29T06:45:06.064Z,2.00
2022-11-29T06:46:06.180Z,2.00
2022-11-29T06:47:06.043Z,3.00
2022-11-29T06:48:06.035Z,3.00
2022-11-29T06:49:06.110Z,4.00
2022-11-29T06:50:06.040Z,4.00
2022-11-29T06:51:06.004Z,7.00
2022-11-29T06:52:05.994Z,8.00
2022-11-29T06:53:05.991Z,8.00
2022-11-29T06:54:05.975Z,10.00
2022-11-29T06:55:05.970Z,14.00
2022-11-29T06:56:05.961Z,17.00
2022-11-29T06:57:05.940Z,17.00
2022-11-29T06:58:05.913Z,22.00
2022-11-29T06:59:05.918Z,23.00
2022-11-29T07:00:05.910Z,25.00
2022-11-29T07:01:05.946Z,27.00
2022-11-29T07:02:05.989Z,33.00
2022-11-29T07:03:05.912Z,34.00
2022-11-29T07:04:05.864Z,37.00
2022-11-29T07:05:05.886Z,40.00
2022-11-29T07:06:05.839Z,45.00
2022-11-29T07:07:05.849Z,46.00
2022-11-29T07:08:05.822Z,48.00
2022-11-29T07:09:05.807Z,52.00
2022-11-29T07:10:08.323Z,55.00
2022-11-29T07:11:06.783Z,59.00
2022-11-29T07:12:05.769Z,62.00
2022-11-29T07:13:05.799Z,66.00
2022-11-29T07:14:05.746Z,69.00
2022-11-29T07:15:05.750Z,72.00
2022-11-29T07:16:05.777Z,78.00
2022-11-29T07:17:05.851Z,85.00
2022-11-29T07:18:05.730Z,94.00
2022-11-29T07:19:05.700Z,106.00
2022-11-29T07:20:05.719Z,117.00
2022-11-29T07:21:05.682Z,126.00
2022-11-29T07:22:05.668Z,139.00
2022-11-29T07:23:05.730Z,146.00
2022-11-29T07:24:05.676Z,154.00
2022-11-29T07:25:05.639Z,160.00
2022-11-29T07:26:05.628Z,167.00
2022-11-29T07:27:05.656Z,169.00
2022-11-29T07:28:05.610Z,170.00
2022-11-29T07:29:05.619Z,170.00
2022-11-29T07:30:05.579Z,170.00
2022-11-29T07:31:05.620Z,171.00
2022-11-29T07:32:05.567Z,175.00
2022-11-29T07:33:05.580Z,183.00
2022-11-29T07:34:05.542Z,185.00
2022-11-29T07:35:05.520Z,195.00
2022-11-29T07:36:05.528Z,204.00
2022-11-29T07:37:05.548Z,215.00
2022-11-29T07:38:05.497Z,226.00
2022-11-29T07:39:05.481Z,240.00
2022-11-29T07:40:05.480Z,253.00
2022-11-29T07:41:05.469Z,261.00
2022-11-29T07:42:05.468Z,270.00
2022-11-29T07:43:05.458Z,276.00
2022-11-29T07:44:05.496Z,290.00
2022-11-29T07:45:05.417Z,311.00
2022-11-29T07:46:05.451Z,332.00
2022-11-29T07:47:05.479Z,352.00
2022-11-29T07:48:05.427Z,360.00
2022-11-29T07:49:05.389Z,350.00
2022-11-29T07:50:05.386Z,345.00
2022-11-29T07:51:05.372Z,355.00
2022-11-29T07:52:05.427Z,379.00
2022-11-29T07:53:05.348Z,431.00
2022-11-29T07:54:05.335Z,471.00
2022-11-29T07:55:05.318Z,483.00
2022-11-29T07:56:05.361Z,471.00
2022-11-29T07:57:05.312Z,473.00
2022-11-29T07:58:05.293Z,503.00
2022-11-29T07:59:05.438Z,540.00
2022-11-29T08:00:05.259Z,588.00
2022-11-29T08:01:05.288Z,620.00
2022-11-29T08:02:11.316Z,625.00
2022-11-29T08:03:06.227Z,621.00
2022-11-29T08:04:05.229Z,634.00
2022-11-29T08:05:05.200Z,657.00
2022-11-29T08:06:05.196Z,685.00
2022-11-29T08:07:05.197Z,698.00
2022-11-29T08:08:05.181Z,746.00
2022-11-29T08:09:05.170Z,871.00
2022-11-29T08:10:05.166Z,996.00
2022-11-29T08:11:05.468Z,1086.00
2022-11-29T08:12:05.174Z,1077.00
2022-11-29T08:13:05.116Z,1064.00
2022-11-29T08:14:05.128Z,1070.00
2022-11-29T08:15:05.261Z,1060.00
2022-11-29T08:16:05.159Z,1051.00
2022-11-29T08:17:05.105Z,1039.00
2022-11-29T08:18:05.192Z,1006.00
2022-11-29T08:19:05.070Z,966.00
2022-11-29T08:20:05.053Z,943.00
2022-11-29T08:21:05.079Z,924.00
2022-11-29T08:22:05.141Z,939.00
2022-11-29T08:23:05.036Z,925.00
2022-11-29T08:24:05.006Z,928.00
2022-11-29T08:25:05.057Z,1048.00
2022-11-29T08:26:04.988Z,1181.00
2022-11-29T08:27:04.986Z,1250.00
2022-11-29T08:28:04.980Z,1309.00
2022-11-29T08:29:06.268Z,1358.00
2022-11-29T08:30:04.944Z,1352.00
2022-11-29T08:31:04.936Z,1331.00
2022-11-29T08:32:04.969Z,1334.00
2022-11-29T08:33:05.007Z,1381.00
2022-11-29T08:34:04.930Z,1441.00
2022-11-29T08:35:04.878Z,1466.00
2022-11-29T08:36:04.911Z,1466.00
2022-11-29T08:37:04.857Z,1439.00
2022-11-29T08:38:04.861Z,1354.00
2022-11-29T08:39:09.213Z,1306.00
2022-11-29T08:40:04.830Z,1279.00
2022-11-29T08:41:04.816Z,1267.00
2022-11-29T08:42:04.835Z,1279.00
2022-11-29T08:43:04.818Z,1325.00
2022-11-29T08:44:04.796Z,1392.00
2022-11-29T08:45:04.848Z,1460.00
2022-11-29T08:46:04.852Z,1543.00
2022-11-29T08:47:04.776Z,1664.00
2022-11-29T08:48:05.065Z,1788.00
2022-11-29T08:49:04.749Z,1938.00
2022-11-29T08:50:04.735Z,2040.00
2022-11-29T08:51:04.739Z,2056.00
2022-11-29T08:52:04.738Z,2007.00
2022-11-29T08:53:04.748Z,1958.00
2022-11-29T08:54:04.735Z,1938.00
2022-11-29T08:55:04.755Z,1956.00
2022-11-29T08:56:23.600Z,2043.00
2022-11-29T08:57:37.937Z,2138.00
2022-11-29T08:58:05.661Z,2172.00
2022-11-29T08:59:04.644Z,2317.00
2022-11-29T09:00:04.626Z,2296.00
2022-11-29T09:01:04.653Z,2067.00
2022-11-29T09:02:04.645Z,1875.00
2022-11-29T09:03:04.603Z,1760.00
2022-11-29T09:04:04.575Z,1683.00
2022-11-29T09:05:04.597Z,1687.00
2022-11-29T09:06:10.436Z,1702.00
2022-11-29T09:07:05.602Z,1650.00
2022-11-29T09:08:04.533Z,1637.00
2022-11-29T09:09:04.521Z,1763.00
2022-11-29T09:10:04.514Z,1940.00
2022-11-29T09:11:04.533Z,1972.00
2022-11-29T09:12:04.483Z,1748.00
2022-11-29T09:13:04.502Z,1580.00
2022-11-29T09:14:04.478Z,1669.00
2022-11-29T09:15:04.467Z,1875.00
2022-11-29T09:16:04.479Z,2028.00
2022-11-29T09:17:04.462Z,2231.00
2022-11-29T09:18:04.602Z,2476.00
2022-11-29T09:19:04.413Z,2733.00
2022-11-29T09:20:04.393Z,2907.00
2022-11-29T09:21:04.382Z,2847.00
2022-11-29T09:22:04.413Z,2712.00
2022-11-29T09:23:04.428Z,2632.00
2022-11-29T09:24:04.429Z,2437.00
2022-11-29T09:25:04.332Z,2203.00
2022-11-29T09:26:04.324Z,2155.00
2022-11-29T09:27:04.332Z,2304.00
2022-11-29T09:28:04.471Z,2306.00
2022-11-29T09:29:04.320Z,2251.00
2022-11-29T09:30:04.293Z,2309.00
2022-11-29T09:31:04.324Z,2272.00
2022-11-29T09:32:04.343Z,2135.00
2022-11-29T09:33:04.272Z,2013.00
2022-11-29T09:34:04.295Z,1914.00
2022-11-29T09:35:04.220Z,1786.00
2022-11-29T09:36:04.220Z,1714.00
2022-11-29T09:37:04.204Z,1624.00
2022-11-29T09:38:04.205Z,1620.00
2022-11-29T09:39:04.328Z,1904.00
2022-11-29T09:40:04.175Z,2318.00
2022-11-29T09:41:04.160Z,2350.00
2022-11-29T09:42:04.144Z,2136.00
2022-11-29T09:43:04.135Z,2147.00
2022-11-29T09:44:04.178Z,2632.00
2022-11-29T09:45:04.119Z,2687.00
2022-11-29T09:46:04.257Z,2383.00
2022-11-29T09:47:04.095Z,2229.00
2022-11-29T09:48:04.086Z,2218.00
2022-11-29T09:49:04.070Z,2004.00
2022-11-29T09:50:04.064Z,1775.00
2022-11-29T09:51:04.042Z,1606.00
2022-11-29T09:52:04.031Z,1483.00
2022-11-29T09:53:04.019Z,1478.00
2022-11-29T09:54:04.025Z,1574.00
2022-11-29T09:55:04.000Z,1646.00
2022-11-29T09:56:03.983Z,1850.00
2022-11-29T09:57:10.162Z,2098.00
2022-11-29T09:58:04.978Z,2258.00
2022-11-29T09:59:03.999Z,2183.00
2022-11-29T10:00:03.960Z,2030.00
2022-11-29T10:01:04.005Z,1936.00
2022-11-29T10:02:04.048Z,1863.00
2022-11-29T10:03:03.961Z,1834.00
2022-11-29T10:04:03.919Z,1700.00
2022-11-29T10:05:03.901Z,1640.00
2022-11-29T10:06:03.907Z,1754.00
2022-11-29T10:07:03.877Z,1775.00
2022-11-29T10:08:03.861Z,1701.00
2022-11-29T10:09:03.841Z,1759.00
2022-11-29T10:10:03.900Z,2034.00
2022-11-29T10:11:03.819Z,2270.00
2022-11-29T10:12:03.809Z,2349.00
2022-11-29T10:13:03.808Z,2211.00
2022-11-29T10:14:03.800Z,2123.00
2022-11-29T10:15:03.768Z,2352.00
2022-11-29T10:16:03.770Z,2550.00
2022-11-29T10:17:03.789Z,2544.00
2022-11-29T10:18:03.765Z,2398.00
2022-11-29T10:19:03.737Z,2301.00
2022-11-29T10:20:03.776Z,2133.00
2022-11-29T10:21:03.707Z,1983.00
2022-11-29T10:22:03.724Z,1886.00
2022-11-29T10:23:03.705Z,1745.00
2022-11-29T10:24:03.701Z,1663.00
2022-11-29T10:25:03.719Z,1576.00
2022-11-29T10:26:03.693Z,1556.00
2022-11-29T10:27:03.639Z,1481.00
2022-11-29T10:28:03.698Z,1533.00
2022-11-29T10:29:03.642Z,1640.00
2022-11-29T10:30:03.616Z,1513.00
2022-11-29T10:31:03.689Z,1567.00
2022-11-29T10:32:08.642Z,1567.00
2022-11-29T10:33:04.579Z,1590.00
2022-11-29T10:34:03.604Z,1704.00
2022-11-29T10:35:03.558Z,1831.00
2022-11-29T10:36:03.547Z,1828.00
2022-11-29T10:37:03.527Z,1894.00
2022-11-29T10:39:07.680Z,2063.00
2022-11-29T10:40:04.673Z,2163.00
2022-11-29T10:41:03.535Z,2150.00
2022-11-29T10:42:03.490Z,2220.00
2022-11-29T10:43:03.466Z,2049.00
2022-11-29T10:44:03.500Z,1978.00
2022-11-29T10:45:03.456Z,1901.00
2022-11-29T10:46:03.469Z,1870.00
2022-11-29T10:47:07.820Z,1800.00
2022-11-29T10:48:04.425Z,1699.00
2022-11-29T10:49:03.414Z,1809.00
2022-11-29T10:50:03.405Z,1776.00
2022-11-29T10:51:03.387Z,1644.00
2022-11-29T10:52:03.470Z,1549.00
2022-11-29T10:53:03.363Z,1654.00
2022-11-29T10:54:03.417Z,2037.00
2022-11-29T10:55:03.339Z,2105.00
2022-11-29T10:56:03.325Z,2703.00
2022-11-29T10:57:03.361Z,2526.00
2022-11-29T10:58:03.359Z,3002.00
2022-11-29T10:59:03.308Z,2645.00
2022-11-29T11:00:03.316Z,3012.00
2022-11-29T11:01:03.288Z,3180.00
2022-11-29T11:02:03.703Z,3494.00
2022-11-29T11:03:03.277Z,3593.00
2022-11-29T11:04:03.277Z,3586.00
2022-11-29T11:05:03.243Z,3604.00
2022-11-29T11:06:03.240Z,3810.00
2022-11-29T11:07:03.217Z,4059.00
2022-11-29T11:08:03.194Z,4552.00
2022-11-29T11:09:03.185Z,4147.00
2022-11-29T11:10:03.173Z,3745.00
2022-11-29T11:11:03.156Z,3724.00
2022-11-29T11:12:03.162Z,4092.00
2022-11-29T11:13:03.141Z,4410.00
2022-11-29T11:14:03.778Z,3993.00
2022-11-29T11:15:03.131Z,3728.00
2022-11-29T11:16:03.112Z,3827.00
2022-11-29T11:17:03.156Z,3262.00
2022-11-29T11:18:03.089Z,3097.00
2022-11-29T11:19:03.097Z,2950.00
2022-11-29T11:20:03.085Z,2942.00
2022-11-29T11:21:03.118Z,2995.00
2022-11-29T11:22:03.039Z,2910.00
2022-11-29T11:23:03.025Z,2812.00
2022-11-29T11:24:03.017Z,2950.00
2022-11-29T11:25:03.003Z,2621.00
2022-11-29T11:26:03.010Z,2420.00
2022-11-29T11:27:02.995Z,2526.00
2022-11-29T11:28:02.993Z,2453.00
2022-11-29T11:29:02.972Z,2585.00
2022-11-29T11:30:02.965Z,2882.00
2022-11-29T11:31:02.999Z,2952.00
2022-11-29T11:32:02.985Z,2634.00
2022-11-29T11:33:02.918Z,2400.00
2022-11-29T11:34:02.903Z,2120.00
2022-11-29T11:35:02.896Z,1766.00
2022-11-29T11:36:02.907Z,1481.00
2022-11-29T11:37:02.883Z,1554.00
2022-11-29T11:38:02.885Z,1881.00
2022-11-29T11:39:02.885Z,2194.00
2022-11-29T11:40:03.005Z,2197.00
2022-11-29T11:41:02.893Z,2087.00
2022-11-29T11:42:02.834Z,2124.00
2022-11-29T11:43:02.795Z,2256.00
2022-11-29T11:44:07.153Z,2175.00
2022-11-29T11:45:04.153Z,2022.00
2022-11-29T11:46:02.890Z,2053.00
2022-11-29T11:47:02.866Z,2253.00
2022-11-29T11:48:02.744Z,2448.00
2022-11-29T11:49:02.743Z,2493.00
2022-11-29T11:50:02.789Z,2657.00
2022-11-29T11:51:02.806Z,2602.00
2022-11-29T11:52:02.714Z,2503.00
2022-11-29T11:53:02.762Z,2303.00
2022-11-29T11:54:02.741Z,2307.00
2022-11-29T11:55:02.674Z,2409.00
2022-11-29T11:56:02.723Z,2140.00
2022-11-29T11:57:02.666Z,2041.00
2022-11-29T11:58:09.438Z,2034.00
2022-11-29T11:59:03.713Z,1993.00
2022-11-29T12:00:06.916Z,2161.00
2022-11-29T12:01:04.258Z,3118.00
2022-11-29T12:02:02.763Z,2557.00
2022-11-29T12:03:02.665Z,2105.00
2022-11-29T12:04:02.624Z,1926.00
2022-11-29T12:05:02.576Z,1818.00
2022-11-29T12:06:02.550Z,1735.00
2022-11-29T12:07:02.554Z,1651.00
2022-11-29T12:08:09.805Z,1749.00
2022-11-29T12:09:03.526Z,1960.00
2022-11-29T12:10:02.595Z,2038.00
2022-11-29T12:11:07.046Z,1949.00
2022-11-29T12:12:03.484Z,1915.00
2022-11-29T12:13:02.473Z,1778.00
2022-11-29T12:14:02.489Z,1628.00
2022-11-29T12:15:02.458Z,1714.00
2022-11-29T12:16:02.483Z,2042.00
2022-11-29T12:17:02.432Z,2033.00
2022-11-29T12:18:02.443Z,1859.00
2022-11-29T12:19:02.409Z,1908.00
2022-11-29T12:20:02.395Z,2190.00
2022-11-29T12:21:02.405Z,2440.00
2022-11-29T12:22:02.449Z,2339.00
2022-11-29T12:23:02.366Z,2476.00
2022-11-29T12:24:02.382Z,2547.00
2022-11-29T12:25:02.352Z,2271.00
2022-11-29T12:26:02.357Z,2277.00
2022-11-29T12:27:02.363Z,2411.00
2022-11-29T12:28:02.306Z,2485.00
2022-11-29T12:29:02.333Z,2706.00
2022-11-29T12:30:02.352Z,2722.00
2022-11-29T12:31:02.316Z,2617.00
2022-11-29T12:32:02.276Z,2499.00
2022-11-29T12:33:02.301Z,2367.00
2022-11-29T12:34:02.274Z,2402.00
2022-11-29T12:35:02.251Z,2893.00
2022-11-29T12:36:02.224Z,2822.00
2022-11-29T12:37:02.216Z,3141.00
2022-11-29T12:38:02.235Z,2671.00
2022-11-29T12:39:02.206Z,2689.00
2022-11-29T12:40:02.178Z,3004.00
2022-11-29T12:41:02.192Z,2840.00
2022-11-29T12:42:02.157Z,2778.00
2022-11-29T12:43:02.153Z,2737.00
2022-11-29T12:44:02.137Z,2444.00
2022-11-29T12:45:02.159Z,2069.00
2022-11-29T12:46:02.217Z,2147.00
2022-11-29T12:47:28.148Z,2595.00